Edgware, United Kingdom
Current Conditions -  °F | °C
As of 4:50 AM on Tuesday 27 Jan 2015 (Local Time) from EGWU Reporting Station
Broken Clouds Broken Clouds  
Wind Chill: 35°   Ceiling: 12000
Heat Index: 39°   Visibility: 6mi
Dew Point: 34°   Wind: 6mph
Humidity: 81%   Direction: 270°W
Pressure: 30.36"   Gusts: NA
Location:  51.61°N, 0.27°W
Report Text: EGWU 270450Z AUTO 27005KT 9999 // BKN120/// 04/01 Q1028
Loading
Personal Weather Stations






























Interactive Weather Map New forecast layout! Learn more

10-Day Weather Forecast

Advertisements
Track Severe Weather on mobile